createdAt,value
2023-03-10T00:03:20.906Z,89.93
2023-03-10T00:08:29.195Z,89.94
2023-03-10T00:13:36.648Z,90.05
2023-03-10T00:18:44.100Z,90.01
2023-03-10T00:23:52.206Z,90.05
2023-03-10T00:29:00.095Z,90.46
2023-03-10T00:34:07.997Z,90.65
2023-03-10T00:39:15.562Z,90.42
2023-03-10T00:44:23.487Z,90.72
2023-03-10T00:49:31.161Z,90.86
2023-03-10T00:54:42.850Z,90.73
2023-03-10T00:59:53.842Z,90.62
2023-03-10T01:05:01.572Z,90.77
2023-03-10T01:10:10.768Z,90.92
2023-03-10T01:15:18.240Z,90.97
2023-03-10T01:20:25.762Z,91.04
2023-03-10T01:25:33.194Z,91.21
2023-03-10T01:30:41.637Z,91.91
2023-03-10T01:35:48.831Z,91.86
2023-03-10T01:40:57.216Z,92.52
2023-03-10T01:46:35.405Z,92.88
2023-03-10T01:51:45.404Z,93.07
2023-03-10T01:56:54.350Z,92.67
2023-03-10T02:02:20.988Z,92.22
2023-03-10T02:07:31.742Z,92.76
2023-03-10T02:12:39.121Z,93.66
2023-03-10T02:17:47.153Z,94.01
2023-03-10T02:22:54.790Z,94.40
2023-03-10T02:28:02.855Z,94.70
2023-03-10T02:33:15.199Z,95.06
2023-03-10T02:38:23.062Z,94.39
2023-03-10T02:43:33.390Z,94.63
2023-03-10T02:48:42.856Z,94.75
2023-03-10T02:53:50.078Z,94.25
2023-03-10T02:58:55.799Z,94.38
2023-03-10T03:04:04.297Z,94.26
2023-03-10T03:09:12.076Z,94.12
2023-03-10T03:14:19.707Z,94.22
2023-03-10T03:19:29.918Z,94.63
2023-03-10T03:24:37.971Z,94.02
2023-03-10T03:29:45.660Z,94.06
2023-03-10T03:35:24.288Z,94.52
2023-03-10T03:40:36.882Z,94.16
2023-03-10T03:45:44.813Z,94.50
2023-03-10T03:50:52.464Z,95.02
2023-03-10T03:56:00.121Z,94.97
2023-03-10T04:01:08.264Z,94.40
2023-03-10T04:06:15.833Z,94.80
2023-03-10T04:11:23.879Z,95.00
2023-03-10T04:16:31.342Z,95.19
2023-03-10T04:21:39.121Z,95.00
2023-03-10T04:26:47.101Z,94.96
2023-03-10T04:32:04.712Z,94.66
2023-03-10T04:37:12.552Z,94.31
2023-03-10T04:42:18.215Z,94.17
2023-03-10T04:47:25.839Z,94.55
2023-03-10T04:52:33.469Z,94.81
2023-03-10T04:57:40.853Z,94.68
2023-03-10T05:02:48.191Z,94.18
2023-03-10T05:07:53.815Z,94.15
2023-03-10T05:13:01.631Z,94.53
2023-03-10T05:18:10.792Z,95.38
2023-03-10T05:23:18.085Z,95.80
2023-03-10T05:28:25.705Z,95.55
2023-03-10T05:33:33.810Z,95.91
2023-03-10T05:38:41.440Z,96.11
2023-03-10T05:43:48.942Z,96.54
2023-03-10T05:48:56.442Z,97.09
2023-03-10T05:54:05.594Z,97.18
2023-03-10T05:59:13.102Z,97.33
2023-03-10T06:04:20.588Z,97.49
2023-03-10T06:09:28.849Z,97.12
2023-03-10T06:14:36.653Z,97.55
2023-03-10T06:19:43.866Z,98.24
2023-03-10T06:24:49.477Z,97.86
2023-03-10T06:29:56.703Z,97.18
2023-03-10T06:35:02.196Z,96.93
2023-03-10T06:40:13.308Z,98.14
2023-03-10T06:45:20.564Z,99.05
2023-03-10T06:50:26.022Z,99.83
2023-03-10T06:55:33.221Z,100.00
2023-03-10T07:00:41.238Z,100.00
2023-03-10T07:05:46.787Z,100.00
2023-03-10T07:16:20.287Z,100.00
2023-03-10T07:21:28.558Z,100.00
2023-03-10T07:26:38.187Z,100.00
2023-03-10T07:31:47.521Z,99.25
2023-03-10T07:36:54.829Z,98.23
2023-03-10T07:42:02.205Z,97.35
2023-03-10T07:47:09.992Z,95.71
2023-03-10T07:52:19.681Z,93.79
2023-03-10T07:57:26.958Z,91.74
2023-03-10T08:02:34.187Z,89.79
2023-03-10T08:07:42.149Z,87.11
2023-03-10T08:12:49.486Z,85.44
2023-03-10T08:17:57.273Z,84.01
2023-03-10T08:23:05.343Z,81.33
2023-03-10T08:28:12.483Z,79.42
2023-03-10T08:33:19.798Z,77.13
2023-03-10T08:38:27.110Z,75.52
2023-03-10T08:43:34.398Z,73.81
2023-03-10T08:48:43.016Z,73.05
2023-03-10T08:53:52.590Z,71.07
2023-03-10T08:59:01.244Z,69.25
2023-03-10T09:04:10.630Z,68.96
2023-03-10T09:09:18.402Z,67.31
2023-03-10T09:14:26.144Z,64.31
2023-03-10T09:19:35.075Z,63.37
2023-03-10T09:24:42.374Z,61.95
2023-03-10T09:29:49.589Z,61.37
2023-03-10T09:34:57.020Z,60.83
2023-03-10T09:40:06.384Z,60.21
2023-03-10T09:45:36.892Z,60.96
2023-03-10T09:50:48.012Z,60.75
2023-03-10T09:55:55.450Z,61.14
2023-03-10T10:01:05.154Z,59.22
2023-03-10T10:06:19.642Z,58.53
2023-03-10T10:11:27.077Z,57.10
2023-03-10T10:16:43.877Z,57.28
2023-03-10T10:21:53.201Z,56.89
2023-03-10T10:27:00.515Z,56.61
2023-03-10T10:32:13.388Z,55.10
2023-03-10T10:37:31.229Z,56.35
2023-03-10T10:42:38.498Z,55.09
2023-03-10T10:47:52.089Z,54.94
2023-03-10T10:53:24.759Z,54.12
2023-03-10T10:58:35.116Z,53.58
2023-03-10T11:03:46.379Z,53.96
2023-03-10T11:09:03.945Z,51.75
2023-03-10T11:14:22.446Z,51.71
2023-03-10T11:19:38.378Z,51.40
2023-03-10T11:24:53.020Z,51.44
2023-03-10T11:30:08.223Z,50.81
2023-03-10T11:35:27.702Z,50.37
2023-03-10T11:40:44.147Z,50.75
2023-03-10T11:45:55.088Z,51.38
2023-03-10T11:51:07.364Z,51.05
2023-03-10T11:56:16.705Z,50.78
2023-03-10T12:01:30.962Z,50.70
2023-03-10T12:06:46.632Z,49.98
2023-03-10T12:11:55.786Z,50.63
2023-03-10T12:17:05.553Z,48.72
2023-03-10T12:22:37.286Z,50.18
2023-03-10T12:28:14.405Z,50.14
2023-03-10T12:33:39.993Z,50.47
2023-03-10T12:38:50.004Z,49.65
2023-03-10T12:43:59.204Z,49.09
2023-03-10T12:49:19.374Z,48.81
2023-03-10T12:54:44.117Z,49.71
2023-03-10T13:00:01.715Z,49.92
2023-03-10T13:05:23.521Z,48.94
2023-03-10T13:10:34.630Z,48.21
2023-03-10T13:15:42.238Z,48.21
2023-03-10T13:20:50.193Z,48.58
2023-03-10T13:25:59.958Z,48.92
2023-03-10T13:31:25.819Z,48.54
2023-03-10T13:36:38.535Z,47.90
2023-03-10T13:51:39.492Z,49.37
2023-03-10T14:06:34.787Z,50.19
2023-03-10T14:11:46.541Z,50.71
2023-03-10T14:16:57.913Z,51.05
2023-03-10T14:22:05.500Z,50.76
2023-03-10T14:27:13.335Z,51.99
2023-03-10T14:32:22.077Z,51.99
2023-03-10T14:37:29.653Z,51.82
2023-03-10T14:42:37.600Z,51.32
2023-03-10T14:47:45.319Z,52.16
2023-03-10T14:52:52.846Z,51.86
2023-03-10T14:58:03.711Z,50.95
2023-03-10T15:03:12.759Z,51.74
2023-03-10T15:08:20.360Z,52.78
2023-03-10T15:13:28.035Z,53.31
2023-03-10T15:18:35.593Z,53.68
2023-03-10T15:23:43.070Z,54.14
2023-03-10T15:28:50.613Z,54.14
2023-03-10T15:33:58.780Z,54.25
2023-03-10T15:42:02.795Z,54.92
2023-03-10T15:47:10.653Z,54.94
2023-03-10T15:52:18.113Z,55.03
2023-03-10T15:57:25.437Z,55.27
2023-03-10T16:02:32.709Z,55.65
2023-03-10T16:07:40.463Z,55.70
2023-03-10T16:15:18.639Z,55.95
2023-03-10T16:20:26.518Z,56.05
2023-03-10T16:25:34.393Z,56.55
2023-03-10T16:30:41.881Z,57.44
2023-03-10T16:35:49.860Z,57.61
2023-03-10T16:40:58.440Z,58.38
2023-03-10T16:46:11.534Z,58.92
2023-03-10T16:51:26.894Z,59.20
2023-03-10T16:56:38.008Z,59.98
2023-03-10T17:01:45.668Z,60.09
2023-03-10T17:06:53.225Z,60.35
2023-03-10T17:12:03.017Z,60.66
2023-03-10T17:17:10.258Z,61.24
2023-03-10T17:22:17.725Z,61.64
2023-03-10T17:27:25.627Z,62.50
2023-03-10T17:32:33.003Z,63.66
2023-03-10T17:37:41.471Z,66.54
2023-03-10T17:42:48.681Z,68.04
2023-03-10T17:47:56.268Z,68.94
2023-03-10T17:53:03.578Z,70.54
2023-03-10T17:58:11.948Z,71.97
2023-03-10T18:03:20.413Z,72.91
2023-03-10T18:08:27.987Z,73.85
2023-03-10T18:13:35.674Z,74.51
2023-03-10T18:18:43.714Z,74.76
2023-03-10T18:23:51.671Z,76.20
2023-03-10T18:28:59.522Z,77.12
2023-03-10T18:34:07.176Z,78.12
2023-03-10T18:39:15.381Z,78.30
2023-03-10T18:44:22.700Z,78.94
2023-03-10T18:49:30.068Z,78.96
2023-03-10T18:54:37.239Z,78.76
2023-03-10T18:59:44.886Z,79.40
2023-03-10T19:04:52.325Z,80.20
2023-03-10T19:10:00.750Z,81.54
2023-03-10T19:15:12.260Z,81.93
2023-03-10T19:20:19.886Z,82.20
2023-03-10T19:25:27.895Z,82.12
2023-03-10T19:30:35.621Z,81.98
2023-03-10T19:35:43.022Z,82.00
2023-03-10T19:40:51.010Z,82.23
2023-03-10T19:46:04.187Z,81.89
2023-03-10T19:51:22.652Z,81.31
2023-03-10T19:56:30.557Z,81.73
2023-03-10T20:01:39.195Z,82.43
2023-03-10T20:06:46.925Z,82.90
2023-03-10T20:11:54.306Z,82.53
2023-03-10T20:17:02.230Z,82.40
2023-03-10T20:22:09.944Z,82.98
2023-03-10T20:27:18.064Z,82.69
2023-03-10T20:32:25.785Z,82.72
2023-03-10T20:37:34.110Z,83.09
2023-03-10T20:42:42.667Z,83.07
2023-03-10T20:47:50.559Z,82.82
2023-03-10T20:52:57.747Z,83.33
2023-03-10T20:58:05.166Z,83.66
2023-03-10T21:03:12.415Z,83.97
2023-03-10T21:08:20.169Z,83.43
2023-03-10T21:13:27.711Z,83.71
2023-03-10T21:18:35.188Z,83.97
2023-03-10T21:23:43.347Z,83.79
2023-03-10T21:28:51.249Z,83.71
2023-03-10T21:33:58.678Z,83.53
2023-03-10T21:39:09.244Z,83.86
2023-03-10T21:44:16.897Z,83.57
2023-03-10T21:49:24.562Z,83.91
2023-03-10T21:54:32.397Z,84.81
2023-03-10T21:59:40.038Z,85.80
2023-03-10T22:04:47.245Z,86.05
2023-03-10T22:09:54.739Z,86.05
2023-03-10T22:15:02.951Z,86.65
2023-03-10T22:20:14.132Z,86.88
2023-03-10T22:25:22.174Z,87.03
2023-03-10T22:30:30.358Z,87.60
2023-03-10T22:35:38.460Z,89.01
2023-03-10T22:40:46.116Z,90.19
2023-03-10T22:45:57.216Z,91.01
2023-03-10T22:51:09.383Z,91.31
2023-03-10T22:56:16.940Z,91.16
2023-03-10T23:01:24.449Z,91.09
2023-03-10T23:06:34.372Z,90.48
2023-03-10T23:11:41.827Z,90.15
2023-03-10T23:16:49.023Z,89.82
2023-03-10T23:21:56.224Z,90.63
2023-03-10T23:27:03.637Z,90.77
2023-03-10T23:32:11.692Z,90.79
2023-03-10T23:37:19.772Z,90.43
2023-03-10T23:42:27.402Z,89.77
2023-03-10T23:47:36.737Z,89.39
2023-03-10T23:52:44.755Z,89.20
2023-03-10T23:57:52.943Z,89.06
